sensor_id;sensor_type;location;lat;lon;timestamp;pressure;altitude;pressure_sealevel;temperature;humidity
7018;BME280;3549;42.162;24.726;2023-04-25T00:00:15;47663.22;;;-141.97;100.00
7018;BME280;3549;42.162;24.726;2023-04-25T00:02:42;47684.38;;;-141.97;100.00
7018;BME280;3549;42.162;24.726;2023-04-25T00:05:07;47653.63;;;-141.97;100.00
7018;BME280;3549;42.162;24.726;2023-04-25T00:07:34;47657.47;;;-141.97;100.00
7018;BME280;3549;42.162;24.726;2023-04-25T00:10:00;47661.31;;;-141.97;100.00
7018;BME280;3549;42.162;24.726;2023-04-25T00:12:25;47626.72;;;-141.97;100.00
7018;BME280;3549;42.162;24.726;2023-04-25T00:14:53;47682.47;;;-141.97;100.00
7018;BME280;3549;42.162;24.726;2023-04-25T00:17:18;47688.22;;;-141.97;100.00
7018;BME280;3549;42.162;24.726;2023-04-25T00:19:44;47649.78;;;-141.97;100.00
7018;BME280;3549;42.162;24.726;2023-04-25T00:22:11;47626.72;;;-141.97;100.00
7018;BME280;3549;42.162;24.726;2023-04-25T00:24:37;47644.00;;;-141.97;100.00
7018;BME280;3549;42.162;24.726;2023-04-25T00:27:02;47707.44;;;-141.97;100.00
7018;BME280;3549;42.162;24.726;2023-04-25T00:29:28;47622.88;;;-141.97;100.00
7018;BME280;3549;42.162;24.726;2023-04-25T00:31:53;47678.63;;;-141.97;100.00
7018;BME280;3549;42.162;24.726;2023-04-25T00:34:19;47703.59;;;-141.97;100.00
7018;BME280;3549;42.162;24.726;2023-04-25T00:36:44;47680.53;;;-141.97;100.00
7018;BME280;3549;42.162;24.726;2023-04-25T00:39:10;47703.59;;;-141.97;100.00
7018;BME280;3549;42.162;24.726;2023-04-25T00:41:36;47680.53;;;-141.97;100.00
7018;BME280;3549;42.162;24.726;2023-04-25T00:44:03;47659.38;;;-141.97;100.00
7018;BME280;3549;42.162;24.726;2023-04-25T00:46:30;47642.09;;;-141.97;100.00
7018;BME280;3549;42.162;24.726;2023-04-25T00:48:56;47799.72;;;-141.97;100.00
7018;BME280;3549;42.162;24.726;2023-04-25T00:51:22;47603.66;;;-141.97;100.00
7018;BME280;3549;42.162;24.726;2023-04-25T00:53:49;47665.16;;;-141.97;100.00
7018;BME280;3549;42.162;24.726;2023-04-25T00:56:15;47665.16;;;-141.97;100.00
7018;BME280;3549;42.162;24.726;2023-04-25T00:58:41;47692.06;;;-141.97;100.00
7018;BME280;3549;42.162;24.726;2023-04-25T01:01:08;47711.28;;;-141.97;100.00
7018;BME280;3549;42.162;24.726;2023-04-25T01:03:36;47647.84;;;-141.97;100.00
7018;BME280;3549;42.162;24.726;2023-04-25T01:06:09;47680.53;;;-141.97;100.00
7018;BME280;3549;42.162;24.726;2023-04-25T01:08:35;47663.22;;;-141.97;100.00
7018;BME280;3549;42.162;24.726;2023-04-25T01:11:01;47624.78;;;-141.97;100.00
7018;BME280;3549;42.162;24.726;2023-04-25T01:13:27;47659.38;;;-141.97;100.00
7018;BME280;3549;42.162;24.726;2023-04-25T01:15:52;47603.66;;;-141.97;100.00
7018;BME280;3549;42.162;24.726;2023-04-25T01:18:19;47628.63;;;-141.97;100.00
7018;BME280;3549;42.162;24.726;2023-04-25T01:20:46;47670.91;;;-141.97;100.00
7018;BME280;3549;42.162;24.726;2023-04-25T01:23:12;47644.00;;;-141.97;100.00
7018;BME280;3549;42.162;24.726;2023-04-25T01:25:39;47672.84;;;-141.97;100.00
7018;BME280;3549;42.162;24.726;2023-04-25T01:28:05;47657.47;;;-141.97;100.00
7018;BME280;3549;42.162;24.726;2023-04-25T01:30:31;47663.22;;;-141.97;100.00
7018;BME280;3549;42.162;24.726;2023-04-25T01:32:57;47663.22;;;-141.97;100.00
7018;BME280;3549;42.162;24.726;2023-04-25T01:35:23;47684.38;;;-141.97;100.00
7018;BME280;3549;42.162;24.726;2023-04-25T01:37:49;47649.78;;;-141.97;100.00
7018;BME280;3549;42.162;24.726;2023-04-25T01:40:17;47663.22;;;-141.97;100.00
7018;BME280;3549;42.162;24.726;2023-04-25T01:42:44;47672.84;;;-141.97;100.00
7018;BME280;3549;42.162;24.726;2023-04-25T01:45:11;47653.63;;;-141.97;100.00
7018;BME280;3549;42.162;24.726;2023-04-25T01:47:37;47590.19;;;-141.97;100.00
7018;BME280;3549;42.162;24.726;2023-04-25T01:50:07;47607.50;;;-141.97;100.00
7018;BME280;3549;42.162;24.726;2023-04-25T01:52:32;47661.31;;;-141.97;100.00
7018;BME280;3549;42.162;24.726;2023-04-25T01:54:59;47672.84;;;-141.97;100.00
7018;BME280;3549;42.162;24.726;2023-04-25T01:57:26;47651.69;;;-141.97;100.00
7018;BME280;3549;42.162;24.726;2023-04-25T01:59:55;47651.69;;;-141.97;100.00
7018;BME280;3549;42.162;24.726;2023-04-25T02:02:23;47670.91;;;-141.97;100.00
7018;BME280;3549;42.162;24.726;2023-04-25T02:04:48;47651.69;;;-141.97;100.00
7018;BME280;3549;42.162;24.726;2023-04-25T02:07:14;47665.16;;;-141.97;100.00
7018;BME280;3549;42.162;24.726;2023-04-25T02:09:39;47738.19;;;-141.97;100.00
7018;BME280;3549;42.162;24.726;2023-04-25T02:12:05;47684.38;;;-141.97;100.00
7018;BME280;3549;42.162;24.726;2023-04-25T02:14:30;47711.28;;;-141.97;100.00
7018;BME280;3549;42.162;24.726;2023-04-25T02:16:56;47715.13;;;-141.97;100.00
7018;BME280;3549;42.162;24.726;2023-04-25T02:19:22;47615.19;;;-141.97;100.00
7018;BME280;3549;42.162;24.726;2023-04-25T02:21:47;47811.25;;;-141.97;100.00
7018;BME280;3549;42.162;24.726;2023-04-25T02:24:13;47667.06;;;-141.97;100.00
7018;BME280;3549;42.162;24.726;2023-04-25T02:26:38;47688.22;;;-141.97;100.00
7018;BME280;3549;42.162;24.726;2023-04-25T02:29:03;47678.63;;;-141.97;100.00
7018;BME280;3549;42.162;24.726;2023-04-25T02:31:29;47657.47;;;-141.97;100.00
7018;BME280;3549;42.162;24.726;2023-04-25T02:33:54;47707.44;;;-141.97;100.00
7018;BME280;3549;42.162;24.726;2023-04-25T02:36:19;47667.06;;;-141.97;100.00
7018;BME280;3549;42.162;24.726;2023-04-25T02:38:45;47667.06;;;-141.97;100.00
7018;BME280;3549;42.162;24.726;2023-04-25T02:41:10;47678.63;;;-141.97;100.00
7018;BME280;3549;42.162;24.726;2023-04-25T02:43:36;47699.75;;;-141.97;100.00
7018;BME280;3549;42.162;24.726;2023-04-25T02:46:01;47661.31;;;-141.97;100.00
7018;BME280;3549;42.162;24.726;2023-04-25T02:48:26;47665.16;;;-141.97;100.00
7018;BME280;3549;42.162;24.726;2023-04-25T02:50:52;47688.22;;;-141.97;100.00
7018;BME280;3549;42.162;24.726;2023-04-25T02:53:17;47694.00;;;-141.97;100.00
7018;BME280;3549;42.162;24.726;2023-04-25T02:55:43;47692.06;;;-141.97;100.00
7018;BME280;3549;42.162;24.726;2023-04-25T02:58:08;47709.38;;;-141.97;100.00
7018;BME280;3549;42.162;24.726;2023-04-25T03:00:34;47690.16;;;-141.97;100.00
7018;BME280;3549;42.162;24.726;2023-04-25T03:02:59;47680.53;;;-141.97;100.00
7018;BME280;3549;42.162;24.726;2023-04-25T03:05:25;47649.78;;;-141.97;100.00
7018;BME280;3549;42.162;24.726;2023-04-25T03:07:50;47692.06;;;-141.97;100.00
7018;BME280;3549;42.162;24.726;2023-04-25T03:10:15;47684.38;;;-141.97;100.00
7018;BME280;3549;42.162;24.726;2023-04-25T03:12:41;47653.63;;;-141.97;100.00
7018;BME280;3549;42.162;24.726;2023-04-25T03:15:07;47703.59;;;-141.97;100.00
7018;BME280;3549;42.162;24.726;2023-04-25T03:17:32;47692.06;;;-141.97;100.00
7018;BME280;3549;42.162;24.726;2023-04-25T03:19:58;47692.06;;;-141.97;100.00
7018;BME280;3549;42.162;24.726;2023-04-25T03:22:23;47622.88;;;-141.97;100.00
7018;BME280;3549;42.162;24.726;2023-04-25T03:24:50;47694.00;;;-141.97;100.00
7018;BME280;3549;42.162;24.726;2023-04-25T03:27:15;47695.91;;;-141.97;100.00
7018;BME280;3549;42.162;24.726;2023-04-25T03:29:41;47647.84;;;-141.97;100.00
7018;BME280;3549;42.162;24.726;2023-04-25T03:32:06;47674.78;;;-141.97;100.00
7018;BME280;3549;42.162;24.726;2023-04-25T03:34:32;47701.69;;;-141.97;100.00
7018;BME280;3549;42.162;24.726;2023-04-25T03:36:57;47690.16;;;-141.97;100.00
7018;BME280;3549;42.162;24.726;2023-04-25T03:39:23;47647.84;;;-141.97;100.00
7018;BME280;3549;42.162;24.726;2023-04-25T03:41:48;47659.38;;;-141.97;100.00
7018;BME280;3549;42.162;24.726;2023-04-25T03:44:14;47715.13;;;-141.97;100.00
7018;BME280;3549;42.162;24.726;2023-04-25T03:46:39;47832.38;;;-141.97;100.00
7018;BME280;3549;42.162;24.726;2023-04-25T03:49:05;47672.84;;;-141.97;100.00
7018;BME280;3549;42.162;24.726;2023-04-25T03:51:30;47661.31;;;-141.97;100.00
7018;BME280;3549;42.162;24.726;2023-04-25T03:53:56;47661.31;;;-141.97;100.00
7018;BME280;3549;42.162;24.726;2023-04-25T03:56:21;47684.38;;;-141.97;100.00
7018;BME280;3549;42.162;24.726;2023-04-25T03:58:47;47803.56;;;-141.97;100.00
7018;BME280;3549;42.162;24.726;2023-04-25T04:01:12;47676.69;;;-141.97;100.00
7018;BME280;3549;42.162;24.726;2023-04-25T04:03:38;47619.03;;;-141.97;100.00
7018;BME280;3549;42.162;24.726;2023-04-25T04:06:04;47711.28;;;-141.97;100.00
7018;BME280;3549;42.162;24.726;2023-04-25T04:08:31;47603.66;;;-141.97;100.00
7018;BME280;3549;42.162;24.726;2023-04-25T04:11:00;47672.84;;;-141.97;100.00
7018;BME280;3549;42.162;24.726;2023-04-25T04:13:26;47663.22;;;-141.97;100.00
7018;BME280;3549;42.162;24.726;2023-04-25T04:15:52;47645.94;;;-141.97;100.00
7018;BME280;3549;42.162;24.726;2023-04-25T04:18:18;47680.53;;;-141.97;100.00
7018;BME280;3549;42.162;24.726;2023-04-25T04:20:43;47653.63;;;-141.97;100.00
7018;BME280;3549;42.162;24.726;2023-04-25T04:23:08;47684.38;;;-141.97;100.00
7018;BME280;3549;42.162;24.726;2023-04-25T04:25:34;47640.16;;;-141.97;100.00
7018;BME280;3549;42.162;24.726;2023-04-25T04:28:00;47665.16;;;-141.97;100.00
7018;BME280;3549;42.162;24.726;2023-04-25T04:30:26;47669.00;;;-141.97;100.00
7018;BME280;3549;42.162;24.726;2023-04-25T04:32:55;47680.53;;;-141.97;100.00
7018;BME280;3549;42.162;24.726;2023-04-25T04:35:21;47657.47;;;-141.97;100.00
7018;BME280;3549;42.162;24.726;2023-04-25T04:37:47;47669.00;;;-141.97;100.00
7018;BME280;3549;42.162;24.726;2023-04-25T04:40:13;47655.53;;;-141.97;100.00
7018;BME280;3549;42.162;24.726;2023-04-25T04:42:41;47667.06;;;-141.97;100.00
7018;BME280;3549;42.162;24.726;2023-04-25T04:45:07;47680.53;;;-141.97;100.00
7018;BME280;3549;42.162;24.726;2023-04-25T04:47:32;47684.38;;;-141.97;100.00
7018;BME280;3549;42.162;24.726;2023-04-25T04:49:59;47653.63;;;-141.97;100.00
7018;BME280;3549;42.162;24.726;2023-04-25T04:52:24;47661.31;;;-141.97;100.00
7018;BME280;3549;42.162;24.726;2023-04-25T04:54:50;47682.47;;;-141.97;100.00
7018;BME280;3549;42.162;24.726;2023-04-25T04:57:15;47657.47;;;-141.97;100.00
7018;BME280;3549;42.162;24.726;2023-04-25T04:59:41;47659.38;;;-141.97;100.00
7018;BME280;3549;42.162;24.726;2023-04-25T05:02:07;47672.84;;;-141.97;100.00
7018;BME280;3549;42.162;24.726;2023-04-25T05:04:32;47661.31;;;-141.97;100.00
7018;BME280;3549;42.162;24.726;2023-04-25T05:06:58;47792.03;;;-141.97;100.00
7018;BME280;3549;42.162;24.726;2023-04-25T05:09:23;47672.84;;;-141.97;100.00
7018;BME280;3549;42.162;24.726;2023-04-25T05:11:51;47665.16;;;-141.97;100.00
7018;BME280;3549;42.162;24.726;2023-04-25T05:14:17;47649.78;;;-141.97;100.00
7018;BME280;3549;42.162;24.726;2023-04-25T05:16:43;47676.69;;;-141.97;100.00
7018;BME280;3549;42.162;24.726;2023-04-25T05:19:08;47655.53;;;-141.97;100.00
7018;BME280;3549;42.162;24.726;2023-04-25T05:21:34;47694.00;;;-141.97;100.00
7018;BME280;3549;42.162;24.726;2023-04-25T05:24:00;47684.38;;;-141.97;100.00
7018;BME280;3549;42.162;24.726;2023-04-25T05:26:25;47628.63;;;-141.97;100.00
7018;BME280;3549;42.162;24.726;2023-04-25T05:28:51;47826.63;;;-141.97;100.00
7018;BME280;3549;42.162;24.726;2023-04-25T05:31:16;47680.53;;;-141.97;100.00
7018;BME280;3549;42.162;24.726;2023-04-25T05:33:41;47669.00;;;-141.97;100.00
7018;BME280;3549;42.162;24.726;2023-04-25T05:36:07;47678.63;;;-141.97;100.00
7018;BME280;3549;42.162;24.726;2023-04-25T05:38:33;47801.63;;;-141.97;100.00
7018;BME280;3549;42.162;24.726;2023-04-25T05:40:58;47674.78;;;-141.97;100.00
7018;BME280;3549;42.162;24.726;2023-04-25T05:43:24;47663.22;;;-141.97;100.00
7018;BME280;3549;42.162;24.726;2023-04-25T05:45:49;47792.03;;;-141.97;100.00
7018;BME280;3549;42.162;24.726;2023-04-25T05:48:15;47655.53;;;-141.97;100.00
7018;BME280;3549;42.162;24.726;2023-04-25T05:50:41;47617.09;;;-141.97;100.00
7018;BME280;3549;42.162;24.726;2023-04-25T05:53:06;47640.16;;;-141.97;100.00
7018;BME280;3549;42.162;24.726;2023-04-25T05:55:31;47657.47;;;-141.97;100.00
7018;BME280;3549;42.162;24.726;2023-04-25T05:57:57;47692.06;;;-141.97;100.00
7018;BME280;3549;42.162;24.726;2023-04-25T06:00:22;47720.91;;;-141.97;100.00
7018;BME280;3549;42.162;24.726;2023-04-25T06:02:48;47672.84;;;-141.97;100.00
7018;BME280;3549;42.162;24.726;2023-04-25T06:05:13;47661.31;;;-141.97;100.00
7018;BME280;3549;42.162;24.726;2023-04-25T06:07:38;47638.25;;;-141.97;100.00
7018;BME280;3549;42.162;24.726;2023-04-25T06:10:04;47667.06;;;-141.97;100.00
7018;BME280;3549;42.162;24.726;2023-04-25T06:12:32;47663.22;;;-141.97;100.00
7018;BME280;3549;42.162;24.726;2023-04-25T06:14:58;47619.03;;;-141.97;95.87
7018;BME280;3549;42.162;24.726;2023-04-25T06:17:24;47584.44;;;-141.97;95.45
7018;BME280;3549;42.162;24.726;2023-04-25T06:19:49;47649.78;;;-141.97;94.35
7018;BME280;3549;42.162;24.726;2023-04-25T06:22:15;47649.78;;;-141.97;93.54
7018;BME280;3549;42.162;24.726;2023-04-25T06:24:40;47638.25;;;-141.97;93.12
7018;BME280;3549;42.162;24.726;2023-04-25T06:27:06;47657.47;;;-141.97;92.65
7018;BME280;3549;42.162;24.726;2023-04-25T06:29:31;47653.63;;;-141.97;92.11
7018;BME280;3549;42.162;24.726;2023-04-25T06:31:57;47611.34;;;-141.97;89.73
7018;BME280;3549;42.162;24.726;2023-04-25T06:34:22;47684.38;;;-141.97;89.30
7018;BME280;3549;42.162;24.726;2023-04-25T06:36:47;47607.50;;;-141.97;86.68
7018;BME280;3549;42.162;24.726;2023-04-25T06:39:13;47659.38;;;-141.97;86.88
7018;BME280;3549;42.162;24.726;2023-04-25T06:41:38;47765.09;;;-141.97;86.49
7018;BME280;3549;42.162;24.726;2023-04-25T06:44:04;47534.44;;;-141.97;85.23
7018;BME280;3549;42.162;24.726;2023-04-25T06:46:29;47655.53;;;-141.97;84.67
7018;BME280;3549;42.162;24.726;2023-04-25T06:48:54;47638.25;;;-141.97;83.83
7018;BME280;3549;42.162;24.726;2023-04-25T06:51:20;47672.84;;;-141.97;82.38
7018;BME280;3549;42.162;24.726;2023-04-25T06:53:46;47653.63;;;-141.97;81.86
7018;BME280;3549;42.162;24.726;2023-04-25T06:56:11;47559.44;;;-141.97;81.75
7018;BME280;3549;42.162;24.726;2023-04-25T06:58:36;47653.63;;;-141.97;81.22
7018;BME280;3549;42.162;24.726;2023-04-25T07:01:02;47661.31;;;-141.97;79.29
7018;BME280;3549;42.162;24.726;2023-04-25T07:03:28;47622.88;;;-141.97;79.31
7018;BME280;3549;42.162;24.726;2023-04-25T07:05:53;47669.00;;;-141.97;78.45
7018;BME280;3549;42.162;24.726;2023-04-25T07:08:19;47605.56;;;-141.97;78.04
7018;BME280;3549;42.162;24.726;2023-04-25T07:10:45;47665.16;;;-141.97;77.09
7018;BME280;3549;42.162;24.726;2023-04-25T07:13:11;47622.88;;;-141.97;76.51
7018;BME280;3549;42.162;24.726;2023-04-25T07:15:37;47611.34;;;-141.97;74.08
7018;BME280;3549;42.162;24.726;2023-04-25T07:18:02;47609.41;;;-141.97;72.79
7018;BME280;3549;42.162;24.726;2023-04-25T07:20:28;47619.03;;;-141.97;72.48
7018;BME280;3549;42.162;24.726;2023-04-25T07:22:53;47772.78;;;-141.97;73.09
7018;BME280;3549;42.162;24.726;2023-04-25T07:25:19;47511.38;;;-141.97;74.91
7018;BME280;3549;42.162;24.726;2023-04-25T07:27:45;47649.78;;;-141.97;75.53
7018;BME280;3549;42.162;24.726;2023-04-25T07:30:11;47669.00;;;-141.97;76.23
7018;BME280;3549;42.162;24.726;2023-04-25T07:32:37;47767.03;;;-141.97;76.11
7018;BME280;3549;42.162;24.726;2023-04-25T07:35:03;47617.09;;;-141.97;76.20
7018;BME280;3549;42.162;24.726;2023-04-25T07:37:29;47626.72;;;-141.97;73.36
7018;BME280;3549;42.162;24.726;2023-04-25T07:39:54;47603.66;;;-141.97;72.72
7018;BME280;3549;42.162;24.726;2023-04-25T07:42:19;47572.91;;;-141.97;73.28
7018;BME280;3549;42.162;24.726;2023-04-25T07:44:46;47630.56;;;-141.97;71.97
7018;BME280;3549;42.162;24.726;2023-04-25T07:47:12;47638.25;;;-141.97;71.08
7018;BME280;3549;42.162;24.726;2023-04-25T07:49:38;47622.88;;;-141.97;69.74
7018;BME280;3549;42.162;24.726;2023-04-25T07:52:04;47601.72;;;-141.97;68.30
7018;BME280;3549;42.162;24.726;2023-04-25T07:54:33;47576.75;;;-141.97;69.78
7018;BME280;3549;42.162;24.726;2023-04-25T07:56:58;47557.53;;;-141.97;69.04
7018;BME280;3549;42.162;24.726;2023-04-25T07:59:24;47632.47;;;-141.97;68.70
7018;BME280;3549;42.162;24.726;2023-04-25T08:01:50;47780.47;;;-141.97;69.37
7018;BME280;3549;42.162;24.726;2023-04-25T08:04:16;47580.59;;;-141.97;68.74
7018;BME280;3549;42.162;24.726;2023-04-25T08:06:42;47567.13;;;-141.97;67.51
7018;BME280;3549;42.162;24.726;2023-04-25T08:09:08;47703.59;;;-141.97;68.19
7018;BME280;3549;42.162;24.726;2023-04-25T08:11:34;47522.91;;;-141.97;67.50
7018;BME280;3549;42.162;24.726;2023-04-25T08:14:00;47588.28;;;-141.97;65.41
7018;BME280;3549;42.162;24.726;2023-04-25T08:16:26;47597.88;;;-141.97;64.61
7018;BME280;3549;42.162;24.726;2023-04-25T08:18:51;47559.44;;;-141.97;65.24
7018;BME280;3549;42.162;24.726;2023-04-25T08:21:17;47588.28;;;-141.97;63.95
7018;BME280;3549;42.162;24.726;2023-04-25T08:23:42;47632.47;;;-141.97;63.47
7018;BME280;3549;42.162;24.726;2023-04-25T08:26:07;47624.78;;;-141.97;62.43
7018;BME280;3549;42.162;24.726;2023-04-25T08:28:33;47611.34;;;-141.97;54.95
7018;BME280;3549;42.162;24.726;2023-04-25T08:30:59;47574.81;;;-141.97;55.92
7018;BME280;3549;42.162;24.726;2023-04-25T08:33:25;47738.19;;;-141.97;55.67
7018;BME280;3549;42.162;24.726;2023-04-25T08:35:50;47576.75;;;-141.97;59.11
7018;BME280;3549;42.162;24.726;2023-04-25T08:38:16;47615.19;;;-141.97;60.37
7018;BME280;3549;42.162;24.726;2023-04-25T08:40:43;47613.25;;;-141.97;61.54
7018;BME280;3549;42.162;24.726;2023-04-25T08:43:09;47765.09;;;-141.97;62.90
7018;BME280;3549;42.162;24.726;2023-04-25T08:45:41;47570.97;;;-141.97;62.35
7018;BME280;3549;42.162;24.726;2023-04-25T08:48:12;47624.78;;;-141.97;62.85
7018;BME280;3549;42.162;24.726;2023-04-25T08:50:55;47538.28;;;-141.97;63.19
7018;BME280;3549;42.162;24.726;2023-04-25T08:53:27;47630.56;;;-141.97;63.19
7018;BME280;3549;42.162;24.726;2023-04-25T08:55:57;47451.81;;;-141.97;62.62
7018;BME280;3549;42.162;24.726;2023-04-25T08:58:27;47759.34;;;-141.97;63.18
7018;BME280;3549;42.162;24.726;2023-04-25T09:04:20;47492.16;;;-141.97;61.13
7018;BME280;3549;42.162;24.726;2023-04-25T09:10:31;47609.41;;;-141.97;60.93
7018;BME280;3549;42.162;24.726;2023-04-25T09:13:09;47542.16;;;-141.97;60.85
7018;BME280;3549;42.162;24.726;2023-04-25T09:15:55;47642.09;;;-141.97;59.98
7018;BME280;3549;42.162;24.726;2023-04-25T09:18:32;47688.22;;;-141.97;59.83
7018;BME280;3549;42.162;24.726;2023-04-25T09:21:06;47728.59;;;-141.97;59.34
7018;BME280;3549;42.162;24.726;2023-04-25T09:23:39;47636.31;;;-141.97;58.53
7018;BME280;3549;42.162;24.726;2023-04-25T09:26:06;47605.56;;;-141.97;58.26
7018;BME280;3549;42.162;24.726;2023-04-25T09:28:32;47592.13;;;-141.97;57.81
7018;BME280;3549;42.162;24.726;2023-04-25T09:30:57;47632.47;;;-141.97;56.62
7018;BME280;3549;42.162;24.726;2023-04-25T09:33:33;47599.81;;;-141.97;55.22
7018;BME280;3549;42.162;24.726;2023-04-25T09:36:04;47595.97;;;-141.97;54.81
7018;BME280;3549;42.162;24.726;2023-04-25T09:38:44;47640.16;;;-141.97;54.77
7018;BME280;3549;42.162;24.726;2023-04-25T09:41:10;47615.19;;;-141.97;54.48
7018;BME280;3549;42.162;24.726;2023-04-25T09:43:36;47615.19;;;-141.97;55.06
7018;BME280;3549;42.162;24.726;2023-04-25T09:46:02;47570.97;;;-141.97;53.79
7018;BME280;3549;42.162;24.726;2023-04-25T09:48:29;47455.66;;;-141.97;53.19
7018;BME280;3549;42.162;24.726;2023-04-25T09:51:11;47467.19;;;-141.97;56.50
7018;BME280;3549;42.162;24.726;2023-04-25T09:53:40;47580.59;;;-141.97;57.67
7018;BME280;3549;42.162;24.726;2023-04-25T09:56:09;47557.53;;;-141.97;55.74
7018;BME280;3549;42.162;24.726;2023-04-25T09:58:36;47594.03;;;-141.97;53.91
7018;BME280;3549;42.162;24.726;2023-04-25T10:01:03;47553.69;;;-141.97;55.52
7018;BME280;3549;42.162;24.726;2023-04-25T10:03:30;47630.56;;;-141.97;55.85
7018;BME280;3549;42.162;24.726;2023-04-25T10:06:01;47411.44;;;-141.97;54.56
7018;BME280;3549;42.162;24.726;2023-04-25T10:08:35;47592.13;;;-141.97;52.54
7018;BME280;3549;42.162;24.726;2023-04-25T10:11:04;47584.44;;;-141.97;52.28
7018;BME280;3549;42.162;24.726;2023-04-25T10:13:31;47595.97;;;-141.97;51.93
7018;BME280;3549;42.162;24.726;2023-04-25T10:16:01;47574.81;;;-141.97;51.85
7018;BME280;3549;42.162;24.726;2023-04-25T10:18:28;47584.44;;;-141.97;51.32
7018;BME280;3549;42.162;24.726;2023-04-25T10:20:55;47530.59;;;-141.97;51.14
7018;BME280;3549;42.162;24.726;2023-04-25T10:23:21;47492.16;;;-141.97;52.91
7018;BME280;3549;42.162;24.726;2023-04-25T10:25:47;47695.91;;;-141.97;52.64
7018;BME280;3549;42.162;24.726;2023-04-25T10:28:13;47745.88;;;-141.97;52.56
7018;BME280;3549;42.162;24.726;2023-04-25T10:30:56;47680.53;;;-141.97;52.20
7018;BME280;3549;42.162;24.726;2023-04-25T10:33:39;47599.81;;;-141.97;50.83
7018;BME280;3549;42.162;24.726;2023-04-25T10:36:09;47582.50;;;-141.97;52.08
7018;BME280;3549;42.162;24.726;2023-04-25T10:38:36;47559.44;;;-141.97;51.01
7018;BME280;3549;42.162;24.726;2023-04-25T10:41:04;47582.50;;;-141.97;51.01
7018;BME280;3549;42.162;24.726;2023-04-25T10:45:55;47361.47;;;-141.97;49.39
7018;BME280;3549;42.162;24.726;2023-04-25T10:48:28;47722.81;;;-141.97;49.90
7018;BME280;3549;42.162;24.726;2023-04-25T10:51:08;47484.47;;;-141.97;49.02
7018;BME280;3549;42.162;24.726;2023-04-25T10:53:34;47780.47;;;-141.97;48.51
7018;BME280;3549;42.162;24.726;2023-04-25T10:55:59;47615.19;;;-141.97;47.74
7018;BME280;3549;42.162;24.726;2023-04-25T10:58:26;47457.56;;;-141.97;48.09
7018;BME280;3549;42.162;24.726;2023-04-25T11:00:51;47465.25;;;-141.97;47.28
7018;BME280;3549;42.162;24.726;2023-04-25T11:03:17;47605.56;;;-141.97;48.44
7018;BME280;3549;42.162;24.726;2023-04-25T11:05:44;47578.66;;;-141.97;47.31
7018;BME280;3549;42.162;24.726;2023-04-25T11:08:13;47765.09;;;-141.97;48.29
7018;BME280;3549;42.162;24.726;2023-04-25T11:10:42;47549.84;;;-141.97;47.74
7018;BME280;3549;42.162;24.726;2023-04-25T11:13:08;47590.19;;;-141.97;47.37
7018;BME280;3549;42.162;24.726;2023-04-25T11:15:33;47457.56;;;-141.97;46.36
7018;BME280;3549;42.162;24.726;2023-04-25T11:17:58;47557.53;;;-141.97;45.78
7018;BME280;3549;42.162;24.726;2023-04-25T11:20:26;47761.25;;;-141.97;45.40
7018;BME280;3549;42.162;24.726;2023-04-25T11:22:53;47509.47;;;-141.97;44.55
7018;BME280;3549;42.162;24.726;2023-04-25T11:25:22;47584.44;;;-141.97;44.88
7018;BME280;3549;42.162;24.726;2023-04-25T11:27:52;47496.00;;;-141.97;45.75
7018;BME280;3549;42.162;24.726;2023-04-25T11:30:18;47594.03;;;-141.97;45.27
7018;BME280;3549;42.162;24.726;2023-04-25T11:32:44;47511.38;;;-141.97;44.16
7018;BME280;3549;42.162;24.726;2023-04-25T11:35:10;47530.59;;;-141.97;42.48
7018;BME280;3549;42.162;24.726;2023-04-25T11:37:38;47542.16;;;-141.97;41.21
7018;BME280;3549;42.162;24.726;2023-04-25T11:40:05;47555.59;;;-141.97;40.58
7018;BME280;3549;42.162;24.726;2023-04-25T11:42:32;47474.88;;;-141.97;38.17
7018;BME280;3549;42.162;24.726;2023-04-25T11:44:57;47507.53;;;-141.97;36.36
7018;BME280;3549;42.162;24.726;2023-04-25T11:47:30;47463.34;;;-141.97;35.25
7018;BME280;3549;42.162;24.726;2023-04-25T11:50:01;47342.25;;;-141.97;32.23
7018;BME280;3549;42.162;24.726;2023-04-25T11:52:45;47503.69;;;-141.97;32.62
7018;BME280;3549;42.162;24.726;2023-04-25T11:57:41;47432.59;;;-141.97;32.53
7018;BME280;3549;42.162;24.726;2023-04-25T12:00:12;47434.50;;;-141.97;31.17
7018;BME280;3549;42.162;24.726;2023-04-25T12:02:45;47340.34;;;-141.97;30.67
7018;BME280;3549;42.162;24.726;2023-04-25T12:05:13;47442.19;;;-141.97;30.58
7018;BME280;3549;42.162;24.726;2023-04-25T12:07:38;47461.41;;;-141.97;30.97
7018;BME280;3549;42.162;24.726;2023-04-25T12:10:09;47661.31;;;-141.97;31.29
7018;BME280;3549;42.162;24.726;2023-04-25T12:12:36;47278.84;;;-141.97;30.07
7018;BME280;3549;42.162;24.726;2023-04-25T12:17:38;47192.34;;;-141.97;31.70
7018;BME280;3549;42.162;24.726;2023-04-25T12:20:08;47349.94;;;-141.97;34.48
7018;BME280;3549;42.162;24.726;2023-04-25T12:22:34;47315.34;;;-141.97;34.18
7018;BME280;3549;42.162;24.726;2023-04-25T12:25:02;47440.28;;;-141.97;35.51
7018;BME280;3549;42.162;24.726;2023-04-25T12:27:30;47396.06;;;-141.97;38.68
7018;BME280;3549;42.162;24.726;2023-04-25T12:29:57;47326.88;;;-141.97;39.51
7018;BME280;3549;42.162;24.726;2023-04-25T12:32:22;47449.88;;;-141.97;40.21
7018;BME280;3549;42.162;24.726;2023-04-25T12:34:48;47363.41;;;-141.97;40.55
7018;BME280;3549;42.162;24.726;2023-04-25T12:37:13;47551.75;;;-141.97;40.89
7018;BME280;3549;42.162;24.726;2023-04-25T12:39:39;47530.59;;;-141.97;39.46
7018;BME280;3549;42.162;24.726;2023-04-25T12:42:04;47469.09;;;-141.97;37.38
7018;BME280;3549;42.162;24.726;2023-04-25T12:44:31;47776.63;;;-141.97;36.71
7018;BME280;3549;42.162;24.726;2023-04-25T12:46:56;47663.22;;;-141.97;35.26
7018;BME280;3549;42.162;24.726;2023-04-25T12:49:22;47480.63;;;-141.97;33.62
7018;BME280;3549;42.162;24.726;2023-04-25T12:51:48;47482.56;;;-141.97;34.21
7018;BME280;3549;42.162;24.726;2023-04-25T12:54:13;47326.88;;;-141.97;35.20
7018;BME280;3549;42.162;24.726;2023-04-25T12:56:40;47722.81;;;-141.97;35.79